Greenwood, SC (29649)

7:48 PM EDT on September 02, 2014 (GMT -0400)
Cherokee Hills | Change Station
CLOSE
Current Station
Personal Weather Station
Location: Greenwood, SC
Elevation: 554 ft
Nearby Weather Stations
Active Advisory: Special Statement

Elev 554 ft 34.24 °N, 82.17 °W | Updated 12 seconds ago

Mostly Cloudy
Mostly Cloudy
80.3 °F
Feels Like 85 °F
N
2.0
Wind Variable Wind from ENE
Gusts 7.0 mph

Today
High -- | Low -- °F
--% Chance of Precip.
Yesterday
High -- | Low -- °F
Precip. -- in
7:02 AM 7:53 PM
First Quarter, 56% visible
Pressure 30.01 in
Visibility 10.0 miles
Clouds Scattered Clouds 6500 ft
Mostly Cloudy 9000 ft
Mostly Cloudy 11000 ft
Heat Index 85 °F
Dew Point 73 °F
Humidity 78%
Rainfall 0.12 in
Snow Depth Not available.
UV 0 out of 12
Pollen 9.90 out of 12
Ozone Good
PM2.5 Good
Flu Activity Not available.
SPECI KGRD 022340Z AUTO 15011G19KT 10SM VCTS SCT065 BKN090 BKN110 29/21 A3001 RMK AO2 T02890206

More Conditions Fewer Conditions

Pressure 30.01 in
Visibility 10.0 miles
Clouds Scattered Clouds 6500 ft
Mostly Cloudy 9000 ft
Mostly Cloudy 11000 ft
Heat Index 85 °F
Dew Point 73 °F
Humidity 78%
Rainfall 0.12 in
Snow Depth Not available.
UV 0 out of 12
Pollen 9.90 out of 12
Ozone Good
PM2.5 Good
Flu Activity Not available.
SPECI KGRD 022340Z AUTO 15011G19KT 10SM VCTS SCT065 BKN090 BKN110 29/21 A3001 RMK AO2 T02890206

More Conditions Fewer Conditions

10-Day Weather Forecast

Almanac

Astronomy

Sep. 02, 2014 Rise Set
Actual Time 7:02 AM EDT 7:53 PM EDT
Civil Twilight 6:37 AM EDT 8:18 PM EDT
Nautical Twilight 6:06 AM EDT 8:48 PM EDT
Astronomical Twilight 5:35 AM EDT 9:19 PM EDT
Moon 2:27 PM EDT 12:12 AM EDT
Length of Visible Light 13h 41m
Length of Day
12h 50m
Tomorrow will be 2m 3s shorter.
First Quarter, 56% of the Moon is Illuminated
Today
First Quarter
Sep 8
Full
Sep 15
Last Quarter
Sep 24
New
Oct 1
First Quarter

Today's Extremes

State Highs State Lows

Community

WunderPhotos

Upload Photos

1,749,799 photos uploaded!

Nearby

Air Quality

  Air Quality AQ Index Pollutant
Yesterday Good
PM2.5
Yesterday Good
OZONE
Current Good
PM2.5
Current Good
OZONE
Tuesday Good
OZONE
Wednesday Good
OZONE

Snow Depth

Station Depth Elevation
No new snow has been reported.

Earthquake Activity

City Distance Mag. Time & Date
No recent earthquake activity has been reported nearby.
Minimum magnitude displayed is 2.5.

Coastal Water Temperatures

Place Temperature
No Stations Reporting

Nearby Weather Stations